sensor_id;sensor_type;location;lat;lon;timestamp;P1;durP1;ratioP1;P2;durP2;ratioP2
1122;SDS011;548;48.778;9.252;2022-11-15T00:01:56;26.83;;;24.83;;
1122;SDS011;548;48.778;9.252;2022-11-15T00:04:23;28.73;;;26.17;;
1122;SDS011;548;48.778;9.252;2022-11-15T00:06:50;26.87;;;24.30;;
1122;SDS011;548;48.778;9.252;2022-11-15T00:09:17;23.60;;;21.80;;
1122;SDS011;548;48.778;9.252;2022-11-15T00:11:45;23.97;;;22.17;;
1122;SDS011;548;48.778;9.252;2022-11-15T00:14:11;27.47;;;24.87;;
1122;SDS011;548;48.778;9.252;2022-11-15T00:16:38;27.03;;;24.70;;
1122;SDS011;548;48.778;9.252;2022-11-15T00:19:05;28.27;;;25.53;;
1122;SDS011;548;48.778;9.252;2022-11-15T00:21:31;26.77;;;24.47;;
1122;SDS011;548;48.778;9.252;2022-11-15T00:23:58;28.43;;;26.03;;
1122;SDS011;548;48.778;9.252;2022-11-15T00:26:25;27.70;;;25.60;;
1122;SDS011;548;48.778;9.252;2022-11-15T00:28:53;28.97;;;26.03;;
1122;SDS011;548;48.778;9.252;2022-11-15T00:31:20;27.03;;;25.00;;
1122;SDS011;548;48.778;9.252;2022-11-15T00:33:46;27.50;;;25.27;;
1122;SDS011;548;48.778;9.252;2022-11-15T00:36:13;27.00;;;24.70;;
1122;SDS011;548;48.778;9.252;2022-11-15T00:38:40;29.50;;;27.00;;
1122;SDS011;548;48.778;9.252;2022-11-15T00:41:07;28.33;;;25.80;;
1122;SDS011;548;48.778;9.252;2022-11-15T00:43:33;28.83;;;26.03;;
1122;SDS011;548;48.778;9.252;2022-11-15T00:46:01;25.60;;;23.80;;
1122;SDS011;548;48.778;9.252;2022-11-15T00:48:28;24.93;;;22.70;;
1122;SDS011;548;48.778;9.252;2022-11-15T00:50:56;24.60;;;22.50;;
1122;SDS011;548;48.778;9.252;2022-11-15T00:53:23;24.27;;;22.53;;
1122;SDS011;548;48.778;9.252;2022-11-15T00:55:50;26.20;;;23.60;;
1122;SDS011;548;48.778;9.252;2022-11-15T00:58:16;26.10;;;23.70;;
1122;SDS011;548;48.778;9.252;2022-11-15T01:00:43;28.93;;;26.27;;
1122;SDS011;548;48.778;9.252;2022-11-15T01:03:11;28.17;;;25.77;;
1122;SDS011;548;48.778;9.252;2022-11-15T01:05:38;26.50;;;24.60;;
1122;SDS011;548;48.778;9.252;2022-11-15T01:08:05;26.70;;;24.40;;
1122;SDS011;548;48.778;9.252;2022-11-15T01:10:33;28.87;;;26.20;;
1122;SDS011;548;48.778;9.252;2022-11-15T01:13:00;28.90;;;26.30;;
1122;SDS011;548;48.778;9.252;2022-11-15T01:15:26;29.77;;;27.10;;
1122;SDS011;548;48.778;9.252;2022-11-15T01:17:53;30.00;;;27.50;;
1122;SDS011;548;48.778;9.252;2022-11-15T01:20:21;28.83;;;26.53;;
1122;SDS011;548;48.778;9.252;2022-11-15T01:22:48;30.03;;;27.53;;
1122;SDS011;548;48.778;9.252;2022-11-15T01:25:15;29.63;;;27.10;;
1122;SDS011;548;48.778;9.252;2022-11-15T01:27:42;28.47;;;26.00;;
1122;SDS011;548;48.778;9.252;2022-11-15T03:17:37;29.90;;;27.43;;
1122;SDS011;548;48.778;9.252;2022-11-15T03:20:08;28.93;;;26.40;;
1122;SDS011;548;48.778;9.252;2022-11-15T03:29:20;28.13;;;25.40;;
1122;SDS011;548;48.778;9.252;2022-11-15T03:49:24;28.37;;;26.17;;
1122;SDS011;548;48.778;9.252;2022-11-15T03:51:56;29.70;;;26.63;;
1122;SDS011;548;48.778;9.252;2022-11-15T03:54:23;29.67;;;27.07;;
1122;SDS011;548;48.778;9.252;2022-11-15T03:56:50;26.20;;;23.90;;
1122;SDS011;548;48.778;9.252;2022-11-15T03:59:17;27.80;;;25.60;;
1122;SDS011;548;48.778;9.252;2022-11-15T04:01:55;28.23;;;25.30;;
1122;SDS011;548;48.778;9.252;2022-11-15T04:04:33;26.47;;;24.37;;
1122;SDS011;548;48.778;9.252;2022-11-15T04:07:00;26.73;;;24.37;;
1122;SDS011;548;48.778;9.252;2022-11-15T04:09:27;27.93;;;26.00;;
1122;SDS011;548;48.778;9.252;2022-11-15T04:11:54;28.00;;;25.80;;
1122;SDS011;548;48.778;9.252;2022-11-15T04:14:21;29.70;;;27.40;;
1122;SDS011;548;48.778;9.252;2022-11-15T04:16:48;29.80;;;27.30;;
1122;SDS011;548;48.778;9.252;2022-11-15T04:19:14;28.73;;;26.30;;
1122;SDS011;548;48.778;9.252;2022-11-15T04:22:00;30.17;;;27.67;;
1122;SDS011;548;48.778;9.252;2022-11-15T04:24:44;33.23;;;30.00;;
1122;SDS011;548;48.778;9.252;2022-11-15T04:27:11;29.70;;;27.00;;
1122;SDS011;548;48.778;9.252;2022-11-15T04:29:38;29.60;;;27.37;;
1122;SDS011;548;48.778;9.252;2022-11-15T04:32:06;27.57;;;25.37;;
1122;SDS011;548;48.778;9.252;2022-11-15T04:34:34;28.63;;;26.10;;
1122;SDS011;548;48.778;9.252;2022-11-15T04:37:02;30.10;;;27.33;;
1122;SDS011;548;48.778;9.252;2022-11-15T04:39:38;30.37;;;27.80;;
1122;SDS011;548;48.778;9.252;2022-11-15T04:42:05;28.90;;;26.50;;
1122;SDS011;548;48.778;9.252;2022-11-15T04:44:32;28.20;;;26.00;;
1122;SDS011;548;48.778;9.252;2022-11-15T04:46:59;29.70;;;26.90;;
1122;SDS011;548;48.778;9.252;2022-11-15T04:49:26;27.53;;;25.20;;
1122;SDS011;548;48.778;9.252;2022-11-15T04:51:53;30.23;;;27.93;;
1122;SDS011;548;48.778;9.252;2022-11-15T04:54:21;30.00;;;27.60;;
1122;SDS011;548;48.778;9.252;2022-11-15T04:56:48;30.50;;;27.63;;
1122;SDS011;548;48.778;9.252;2022-11-15T05:02:35;32.70;;;29.63;;
1122;SDS011;548;48.778;9.252;2022-11-15T05:05:19;30.07;;;27.33;;
1122;SDS011;548;48.778;9.252;2022-11-15T05:07:46;34.93;;;31.77;;
1122;SDS011;548;48.778;9.252;2022-11-15T05:10:14;34.60;;;31.80;;
1122;SDS011;548;48.778;9.252;2022-11-15T05:12:41;33.37;;;30.67;;
1122;SDS011;548;48.778;9.252;2022-11-15T05:15:09;34.10;;;30.73;;
1122;SDS011;548;48.778;9.252;2022-11-15T05:17:36;33.80;;;31.00;;
1122;SDS011;548;48.778;9.252;2022-11-15T05:20:03;34.47;;;31.40;;
1122;SDS011;548;48.778;9.252;2022-11-15T05:22:30;30.87;;;28.47;;
1122;SDS011;548;48.778;9.252;2022-11-15T05:24:57;34.47;;;31.00;;
1122;SDS011;548;48.778;9.252;2022-11-15T05:27:25;34.23;;;31.23;;
1122;SDS011;548;48.778;9.252;2022-11-15T05:29:52;33.50;;;30.80;;
1122;SDS011;548;48.778;9.252;2022-11-15T05:32:19;34.43;;;31.30;;
1122;SDS011;548;48.778;9.252;2022-11-15T05:34:46;31.50;;;28.83;;
1122;SDS011;548;48.778;9.252;2022-11-15T05:37:13;32.63;;;29.70;;
1122;SDS011;548;48.778;9.252;2022-11-15T05:39:40;29.17;;;26.90;;
1122;SDS011;548;48.778;9.252;2022-11-15T05:42:07;30.23;;;27.73;;
1122;SDS011;548;48.778;9.252;2022-11-15T05:44:39;30.20;;;27.07;;
1122;SDS011;548;48.778;9.252;2022-11-15T05:47:10;30.23;;;27.63;;
1122;SDS011;548;48.778;9.252;2022-11-15T05:49:42;29.80;;;27.20;;
1122;SDS011;548;48.778;9.252;2022-11-15T05:52:11;28.10;;;25.87;;
1122;SDS011;548;48.778;9.252;2022-11-15T05:54:42;31.00;;;28.50;;
1122;SDS011;548;48.778;9.252;2022-11-15T05:57:10;28.50;;;26.40;;
1122;SDS011;548;48.778;9.252;2022-11-15T05:59:38;26.83;;;24.90;;
1122;SDS011;548;48.778;9.252;2022-11-15T06:02:05;24.10;;;21.97;;
1122;SDS011;548;48.778;9.252;2022-11-15T06:04:32;26.43;;;24.30;;
1122;SDS011;548;48.778;9.252;2022-11-15T06:06:59;26.73;;;24.67;;
1122;SDS011;548;48.778;9.252;2022-11-15T06:09:26;27.40;;;25.33;;
1122;SDS011;548;48.778;9.252;2022-11-15T06:11:52;27.93;;;25.77;;
1122;SDS011;548;48.778;9.252;2022-11-15T06:14:19;28.40;;;26.13;;
1122;SDS011;548;48.778;9.252;2022-11-15T06:16:47;31.97;;;29.13;;
1122;SDS011;548;48.778;9.252;2022-11-15T06:19:14;30.27;;;27.77;;
1122;SDS011;548;48.778;9.252;2022-11-15T06:21:41;32.30;;;29.60;;
1122;SDS011;548;48.778;9.252;2022-11-15T06:24:08;29.00;;;26.57;;
1122;SDS011;548;48.778;9.252;2022-11-15T06:26:35;31.07;;;28.57;;
1122;SDS011;548;48.778;9.252;2022-11-15T06:29:02;28.20;;;25.77;;
1122;SDS011;548;48.778;9.252;2022-11-15T06:31:29;27.63;;;25.63;;
1122;SDS011;548;48.778;9.252;2022-11-15T06:33:57;27.50;;;25.10;;
1122;SDS011;548;48.778;9.252;2022-11-15T06:36:24;28.93;;;26.67;;
1122;SDS011;548;48.778;9.252;2022-11-15T06:38:50;28.90;;;26.50;;
1122;SDS011;548;48.778;9.252;2022-11-15T06:41:17;28.33;;;26.10;;
1122;SDS011;548;48.778;9.252;2022-11-15T06:43:46;30.30;;;27.60;;
1122;SDS011;548;48.778;9.252;2022-11-15T06:46:12;29.87;;;27.60;;
1122;SDS011;548;48.778;9.252;2022-11-15T06:48:39;27.33;;;25.17;;
1122;SDS011;548;48.778;9.252;2022-11-15T06:51:07;32.27;;;29.10;;
1122;SDS011;548;48.778;9.252;2022-11-15T06:53:34;29.57;;;26.20;;
1122;SDS011;548;48.778;9.252;2022-11-15T06:56:01;28.53;;;26.30;;
1122;SDS011;548;48.778;9.252;2022-11-15T06:58:29;27.97;;;25.57;;
1122;SDS011;548;48.778;9.252;2022-11-15T07:00:59;28.67;;;26.40;;
1122;SDS011;548;48.778;9.252;2022-11-15T07:03:27;27.80;;;25.80;;
1122;SDS011;548;48.778;9.252;2022-11-15T07:05:55;28.43;;;26.17;;
1122;SDS011;548;48.778;9.252;2022-11-15T07:08:24;28.27;;;25.93;;
1122;SDS011;548;48.778;9.252;2022-11-15T07:10:54;26.10;;;24.30;;
1122;SDS011;548;48.778;9.252;2022-11-15T07:13:23;26.17;;;23.83;;
1122;SDS011;548;48.778;9.252;2022-11-15T07:15:50;26.10;;;24.40;;
1122;SDS011;548;48.778;9.252;2022-11-15T07:18:17;25.53;;;23.53;;
1122;SDS011;548;48.778;9.252;2022-11-15T07:20:44;25.53;;;23.63;;
1122;SDS011;548;48.778;9.252;2022-11-15T07:23:10;24.87;;;22.80;;
1122;SDS011;548;48.778;9.252;2022-11-15T07:25:38;26.77;;;24.70;;
1122;SDS011;548;48.778;9.252;2022-11-15T07:28:05;26.43;;;23.90;;
1122;SDS011;548;48.778;9.252;2022-11-15T07:30:32;26.20;;;23.63;;
1122;SDS011;548;48.778;9.252;2022-11-15T07:32:59;24.80;;;23.10;;
1122;SDS011;548;48.778;9.252;2022-11-15T07:35:27;26.57;;;24.60;;
1122;SDS011;548;48.778;9.252;2022-11-15T07:37:55;26.97;;;24.70;;
1122;SDS011;548;48.778;9.252;2022-11-15T07:40:23;24.77;;;22.80;;
1122;SDS011;548;48.778;9.252;2022-11-15T07:42:51;23.70;;;21.57;;
1122;SDS011;548;48.778;9.252;2022-11-15T07:45:22;26.33;;;23.80;;
1122;SDS011;548;48.778;9.252;2022-11-15T07:47:51;24.10;;;22.00;;
1122;SDS011;548;48.778;9.252;2022-11-15T07:50:18;23.07;;;21.00;;
1122;SDS011;548;48.778;9.252;2022-11-15T07:52:45;24.70;;;22.83;;
1122;SDS011;548;48.778;9.252;2022-11-15T07:55:12;19.77;;;18.17;;
1122;SDS011;548;48.778;9.252;2022-11-15T07:57:39;21.40;;;19.70;;
1122;SDS011;548;48.778;9.252;2022-11-15T08:00:07;20.93;;;19.00;;
1122;SDS011;548;48.778;9.252;2022-11-15T08:02:35;21.10;;;19.40;;
1122;SDS011;548;48.778;9.252;2022-11-15T08:05:02;20.23;;;18.33;;
1122;SDS011;548;48.778;9.252;2022-11-15T08:07:29;21.10;;;19.17;;
1122;SDS011;548;48.778;9.252;2022-11-15T08:09:56;19.50;;;18.00;;
1122;SDS011;548;48.778;9.252;2022-11-15T08:12:24;19.87;;;18.47;;
1122;SDS011;548;48.778;9.252;2022-11-15T08:14:51;20.90;;;19.43;;
1122;SDS011;548;48.778;9.252;2022-11-15T08:17:19;21.43;;;19.80;;
1122;SDS011;548;48.778;9.252;2022-11-15T08:19:45;21.70;;;19.73;;
1122;SDS011;548;48.778;9.252;2022-11-15T08:22:13;22.40;;;20.07;;
1122;SDS011;548;48.778;9.252;2022-11-15T08:24:40;23.70;;;21.13;;
1122;SDS011;548;48.778;9.252;2022-11-15T08:27:08;19.00;;;17.50;;
1122;SDS011;548;48.778;9.252;2022-11-15T08:29:39;17.57;;;16.27;;
1122;SDS011;548;48.778;9.252;2022-11-15T08:32:07;19.93;;;17.97;;
1122;SDS011;548;48.778;9.252;2022-11-15T08:34:36;19.33;;;18.03;;
1122;SDS011;548;48.778;9.252;2022-11-15T08:37:03;19.70;;;18.27;;
1122;SDS011;548;48.778;9.252;2022-11-15T08:39:31;19.50;;;18.20;;
1122;SDS011;548;48.778;9.252;2022-11-15T08:41:58;19.90;;;18.50;;
1122;SDS011;548;48.778;9.252;2022-11-15T08:44:25;18.80;;;17.47;;
1122;SDS011;548;48.778;9.252;2022-11-15T08:46:51;18.10;;;16.73;;
1122;SDS011;548;48.778;9.252;2022-11-15T08:49:18;18.90;;;17.43;;
1122;SDS011;548;48.778;9.252;2022-11-15T08:51:46;19.07;;;17.43;;
1122;SDS011;548;48.778;9.252;2022-11-15T08:54:13;19.60;;;18.20;;
1122;SDS011;548;48.778;9.252;2022-11-15T08:56:40;18.87;;;17.30;;
1122;SDS011;548;48.778;9.252;2022-11-15T08:59:07;18.27;;;17.10;;
1122;SDS011;548;48.778;9.252;2022-11-15T09:01:33;18.20;;;17.10;;
1122;SDS011;548;48.778;9.252;2022-11-15T09:04:00;18.13;;;16.70;;
1122;SDS011;548;48.778;9.252;2022-11-15T09:06:28;17.43;;;16.13;;
1122;SDS011;548;48.778;9.252;2022-11-15T09:08:57;18.27;;;17.07;;
1122;SDS011;548;48.778;9.252;2022-11-15T09:11:24;18.00;;;16.70;;
1122;SDS011;548;48.778;9.252;2022-11-15T09:13:51;19.13;;;17.60;;
1122;SDS011;548;48.778;9.252;2022-11-15T09:16:18;19.97;;;17.97;;
1122;SDS011;548;48.778;9.252;2022-11-15T09:18:45;17.43;;;16.30;;
1122;SDS011;548;48.778;9.252;2022-11-15T09:21:11;17.40;;;16.17;;
1122;SDS011;548;48.778;9.252;2022-11-15T09:23:38;16.80;;;15.60;;
1122;SDS011;548;48.778;9.252;2022-11-15T09:26:07;16.60;;;15.50;;
1122;SDS011;548;48.778;9.252;2022-11-15T09:28:33;17.63;;;16.37;;
1122;SDS011;548;48.778;9.252;2022-11-15T09:31:03;17.20;;;16.20;;
1122;SDS011;548;48.778;9.252;2022-11-15T09:33:30;17.83;;;16.70;;
1122;SDS011;548;48.778;9.252;2022-11-15T09:35:59;18.40;;;16.83;;
1122;SDS011;548;48.778;9.252;2022-11-15T09:38:27;17.93;;;16.53;;
1122;SDS011;548;48.778;9.252;2022-11-15T09:40:57;18.60;;;17.00;;
1122;SDS011;548;48.778;9.252;2022-11-15T09:43:43;18.70;;;17.23;;
1122;SDS011;548;48.778;9.252;2022-11-15T09:46:20;17.43;;;16.20;;
1122;SDS011;548;48.778;9.252;2022-11-15T09:48:54;15.67;;;14.67;;
1122;SDS011;548;48.778;9.252;2022-11-15T09:51:24;17.43;;;16.17;;
1122;SDS011;548;48.778;9.252;2022-11-15T09:54:00;16.50;;;15.40;;
1122;SDS011;548;48.778;9.252;2022-11-15T09:56:34;18.67;;;16.87;;
1122;SDS011;548;48.778;9.252;2022-11-15T09:59:07;17.30;;;15.73;;
1122;SDS011;548;48.778;9.252;2022-11-15T10:01:50;19.63;;;17.90;;
1122;SDS011;548;48.778;9.252;2022-11-15T10:04:23;20.57;;;18.77;;
1122;SDS011;548;48.778;9.252;2022-11-15T10:06:54;20.07;;;18.30;;
1122;SDS011;548;48.778;9.252;2022-11-15T10:09:26;19.77;;;18.30;;
1122;SDS011;548;48.778;9.252;2022-11-15T10:11:59;28.37;;;18.07;;
1122;SDS011;548;48.778;9.252;2022-11-15T10:14:27;19.57;;;17.97;;
1122;SDS011;548;48.778;9.252;2022-11-15T10:17:06;18.40;;;16.80;;
1122;SDS011;548;48.778;9.252;2022-11-15T10:19:46;18.60;;;17.17;;
1122;SDS011;548;48.778;9.252;2022-11-15T10:22:24;18.23;;;16.90;;
1122;SDS011;548;48.778;9.252;2022-11-15T10:24:59;17.40;;;15.90;;
1122;SDS011;548;48.778;9.252;2022-11-15T10:27:43;15.27;;;14.07;;
1122;SDS011;548;48.778;9.252;2022-11-15T10:30:14;14.67;;;13.77;;
1122;SDS011;548;48.778;9.252;2022-11-15T10:32:43;14.87;;;13.67;;
1122;SDS011;548;48.778;9.252;2022-11-15T10:35:22;15.27;;;13.83;;
1122;SDS011;548;48.778;9.252;2022-11-15T10:37:50;16.63;;;14.30;;
1122;SDS011;548;48.778;9.252;2022-11-15T10:40:18;15.40;;;14.47;;
1122;SDS011;548;48.778;9.252;2022-11-15T10:42:48;15.50;;;14.50;;
1122;SDS011;548;48.778;9.252;2022-11-15T10:45:30;15.70;;;14.57;;
1122;SDS011;548;48.778;9.252;2022-11-15T10:50:48;15.80;;;14.80;;
1122;SDS011;548;48.778;9.252;2022-11-15T10:53:19;17.43;;;15.60;;
1122;SDS011;548;48.778;9.252;2022-11-15T10:55:57;15.93;;;14.83;;
1122;SDS011;548;48.778;9.252;2022-11-15T10:58:37;17.07;;;15.70;;
1122;SDS011;548;48.778;9.252;2022-11-15T11:01:09;16.77;;;15.50;;
1122;SDS011;548;48.778;9.252;2022-11-15T11:03:39;16.57;;;15.40;;
1122;SDS011;548;48.778;9.252;2022-11-15T11:06:08;17.33;;;16.30;;
1122;SDS011;548;48.778;9.252;2022-11-15T11:08:37;16.23;;;15.10;;
1122;SDS011;548;48.778;9.252;2022-11-15T11:11:04;15.20;;;14.20;;
1122;SDS011;548;48.778;9.252;2022-11-15T11:13:32;14.40;;;13.30;;
1122;SDS011;548;48.778;9.252;2022-11-15T11:16:08;13.80;;;13.00;;
1122;SDS011;548;48.778;9.252;2022-11-15T11:18:57;14.07;;;13.03;;
1122;SDS011;548;48.778;9.252;2022-11-15T11:21:33;17.30;;;13.90;;
1122;SDS011;548;48.778;9.252;2022-11-15T11:24:08;14.80;;;13.90;;
1122;SDS011;548;48.778;9.252;2022-11-15T11:26:42;13.97;;;12.97;;
1122;SDS011;548;48.778;9.252;2022-11-15T11:29:19;13.20;;;12.20;;
1122;SDS011;548;48.778;9.252;2022-11-15T11:31:56;13.33;;;12.57;;
1122;SDS011;548;48.778;9.252;2022-11-15T11:34:30;13.50;;;12.80;;
1122;SDS011;548;48.778;9.252;2022-11-15T11:37:11;14.63;;;13.40;;
1122;SDS011;548;48.778;9.252;2022-11-15T11:39:46;13.87;;;12.87;;
1122;SDS011;548;48.778;9.252;2022-11-15T11:42:25;13.90;;;13.03;;
1122;SDS011;548;48.778;9.252;2022-11-15T11:45:02;13.60;;;12.60;;
1122;SDS011;548;48.778;9.252;2022-11-15T11:47:47;14.70;;;13.13;;
1122;SDS011;548;48.778;9.252;2022-11-15T11:50:23;13.30;;;12.60;;
1122;SDS011;548;48.778;9.252;2022-11-15T11:52:54;13.73;;;13.03;;
1122;SDS011;548;48.778;9.252;2022-11-15T11:55:25;13.67;;;12.97;;
1122;SDS011;548;48.778;9.252;2022-11-15T11:57:57;14.30;;;13.53;;
1122;SDS011;548;48.778;9.252;2022-11-15T12:00:31;14.30;;;13.40;;
1122;SDS011;548;48.778;9.252;2022-11-15T12:03:07;15.60;;;14.60;;
1122;SDS011;548;48.778;9.252;2022-11-15T12:05:40;16.20;;;15.30;;
1122;SDS011;548;48.778;9.252;2022-11-15T12:11:04;17.87;;;16.57;;
1122;SDS011;548;48.778;9.252;2022-11-15T12:13:36;21.07;;;18.37;;
1122;SDS011;548;48.778;9.252;2022-11-15T12:16:06;18.70;;;17.20;;
1122;SDS011;548;48.778;9.252;2022-11-15T12:18:39;19.80;;;18.00;;
1122;SDS011;548;48.778;9.252;2022-11-15T12:21:13;18.53;;;17.13;;
1122;SDS011;548;48.778;9.252;2022-11-15T12:23:46;17.00;;;15.80;;
1122;SDS011;548;48.778;9.252;2022-11-15T12:26:19;16.47;;;15.07;;
1122;SDS011;548;48.778;9.252;2022-11-15T12:28:50;17.33;;;15.80;;
1122;SDS011;548;48.778;9.252;2022-11-15T12:31:24;15.33;;;14.30;;
1122;SDS011;548;48.778;9.252;2022-11-15T12:33:58;16.60;;;15.10;;
1122;SDS011;548;48.778;9.252;2022-11-15T12:36:30;17.67;;;16.33;;
1122;SDS011;548;48.778;9.252;2022-11-15T12:39:03;17.17;;;16.00;;
1122;SDS011;548;48.778;9.252;2022-11-15T12:41:31;15.23;;;14.23;;
1122;SDS011;548;48.778;9.252;2022-11-15T12:43:59;16.73;;;15.37;;
1122;SDS011;548;48.778;9.252;2022-11-15T12:49:45;14.00;;;13.10;;
1122;SDS011;548;48.778;9.252;2022-11-15T12:52:13;15.70;;;14.80;;
1122;SDS011;548;48.778;9.252;2022-11-15T12:54:59;15.10;;;14.20;;
1122;SDS011;548;48.778;9.252;2022-11-15T12:57:32;14.43;;;13.43;;
1122;SDS011;548;48.778;9.252;2022-11-15T13:06:03;15.23;;;14.00;;
1122;SDS011;548;48.778;9.252;2022-11-15T13:17:25;14.07;;;13.27;;
1122;SDS011;548;48.778;9.252;2022-11-15T13:19:57;13.87;;;13.07;;
1122;SDS011;548;48.778;9.252;2022-11-15T13:22:46;14.63;;;13.50;;
1122;SDS011;548;48.778;9.252;2022-11-15T13:28:20;13.83;;;13.13;;
1122;SDS011;548;48.778;9.252;2022-11-15T13:30:51;14.27;;;13.30;;
1122;SDS011;548;48.778;9.252;2022-11-15T13:33:20;14.30;;;13.40;;
1122;SDS011;548;48.778;9.252;2022-11-15T13:35:50;14.10;;;13.10;;
1122;SDS011;548;48.778;9.252;2022-11-15T13:38:26;15.20;;;14.20;;
1122;SDS011;548;48.778;9.252;2022-11-15T13:40:54;13.73;;;13.03;;
1122;SDS011;548;48.778;9.252;2022-11-15T13:43:27;15.27;;;14.10;;
1122;SDS011;548;48.778;9.252;2022-11-15T13:46:09;15.37;;;14.47;;
1122;SDS011;548;48.778;9.252;2022-11-15T13:48:38;16.37;;;15.27;;
1122;SDS011;548;48.778;9.252;2022-11-15T13:51:06;16.50;;;15.50;;
1122;SDS011;548;48.778;9.252;2022-11-15T13:53:39;17.33;;;16.00;;
1122;SDS011;548;48.778;9.252;2022-11-15T13:56:11;15.87;;;14.77;;
1122;SDS011;548;48.778;9.252;2022-11-15T13:58:38;15.43;;;14.13;;
1122;SDS011;548;48.778;9.252;2022-11-15T14:01:06;16.57;;;15.50;;
1122;SDS011;548;48.778;9.252;2022-11-15T14:03:40;15.27;;;14.23;;
1122;SDS011;548;48.778;9.252;2022-11-15T14:06:18;15.40;;;14.60;;
1122;SDS011;548;48.778;9.252;2022-11-15T14:09:03;15.90;;;14.80;;
1122;SDS011;548;48.778;9.252;2022-11-15T14:11:55;17.00;;;15.90;;
1122;SDS011;548;48.778;9.252;2022-11-15T14:14:23;19.17;;;17.47;;
1122;SDS011;548;48.778;9.252;2022-11-15T14:16:52;20.90;;;19.30;;
1122;SDS011;548;48.778;9.252;2022-11-15T14:19:34;22.00;;;20.60;;
1122;SDS011;548;48.778;9.252;2022-11-15T14:22:08;20.77;;;19.30;;
1122;SDS011;548;48.778;9.252;2022-11-15T14:24:38;20.23;;;18.73;;
1122;SDS011;548;48.778;9.252;2022-11-15T14:27:18;22.40;;;21.00;;
1122;SDS011;548;48.778;9.252;2022-11-15T14:29:47;22.53;;;20.60;;
1122;SDS011;548;48.778;9.252;2022-11-15T14:32:14;23.37;;;21.37;;
1122;SDS011;548;48.778;9.252;2022-11-15T14:34:43;36.47;;;25.90;;
1122;SDS011;548;48.778;9.252;2022-11-15T14:37:16;27.17;;;24.37;;
1122;SDS011;548;48.778;9.252;2022-11-15T14:39:47;25.20;;;22.63;;
1122;SDS011;548;48.778;9.252;2022-11-15T14:42:14;22.30;;;20.53;;
1122;SDS011;548;48.778;9.252;2022-11-15T14:44:41;19.13;;;17.70;;
1122;SDS011;548;48.778;9.252;2022-11-15T14:47:08;19.67;;;18.33;;
1122;SDS011;548;48.778;9.252;2022-11-15T14:49:35;20.33;;;18.90;;
1122;SDS011;548;48.778;9.252;2022-11-15T14:52:02;21.50;;;19.90;;
1122;SDS011;548;48.778;9.252;2022-11-15T14:54:31;21.43;;;19.77;;
1122;SDS011;548;48.778;9.252;2022-11-15T14:56:59;21.80;;;20.10;;
1122;SDS011;548;48.778;9.252;2022-11-15T14:59:26;21.90;;;20.53;;
1122;SDS011;548;48.778;9.252;2022-11-15T15:01:53;19.83;;;18.17;;
1122;SDS011;548;48.778;9.252;2022-11-15T15:07:02;22.83;;;20.93;;
1122;SDS011;548;48.778;9.252;2022-11-15T15:09:28;24.47;;;22.10;;
1122;SDS011;548;48.778;9.252;2022-11-15T15:11:55;20.77;;;19.23;;
1122;SDS011;548;48.778;9.252;2022-11-15T15:14:23;21.97;;;20.20;;
1122;SDS011;548;48.778;9.252;2022-11-15T15:16:50;23.43;;;21.63;;
1122;SDS011;548;48.778;9.252;2022-11-15T15:19:17;22.93;;;21.03;;
1122;SDS011;548;48.778;9.252;2022-11-15T15:21:43;24.20;;;22.27;;
1122;SDS011;548;48.778;9.252;2022-11-15T15:24:11;22.70;;;20.53;;
1122;SDS011;548;48.778;9.252;2022-11-15T15:26:40;21.30;;;19.40;;
1122;SDS011;548;48.778;9.252;2022-11-15T15:29:08;21.80;;;20.10;;
1122;SDS011;548;48.778;9.252;2022-11-15T15:31:36;21.90;;;19.60;;
1122;SDS011;548;48.778;9.252;2022-11-15T15:34:03;21.10;;;19.77;;
1122;SDS011;548;48.778;9.252;2022-11-15T15:36:30;21.27;;;19.67;;
1122;SDS011;548;48.778;9.252;2022-11-15T15:38:57;22.90;;;21.20;;
1122;SDS011;548;48.778;9.252;2022-11-15T15:41:24;22.03;;;20.50;;
1122;SDS011;548;48.778;9.252;2022-11-15T15:43:51;21.93;;;20.33;;
1122;SDS011;548;48.778;9.252;2022-11-15T15:46:18;21.57;;;20.20;;
1122;SDS011;548;48.778;9.252;2022-11-15T15:48:47;20.57;;;19.07;;
1122;SDS011;548;48.778;9.252;2022-11-15T15:51:14;18.80;;;17.70;;
1122;SDS011;548;48.778;9.252;2022-11-15T15:53:40;21.60;;;20.10;;
1122;SDS011;548;48.778;9.252;2022-11-15T15:56:07;24.43;;;22.00;;
1122;SDS011;548;48.778;9.252;2022-11-15T15:58:34;24.23;;;22.20;;
1122;SDS011;548;48.778;9.252;2022-11-15T16:01:01;23.33;;;21.20;;
1122;SDS011;548;48.778;9.252;2022-11-15T16:03:28;21.47;;;20.00;;
1122;SDS011;548;48.778;9.252;2022-11-15T16:05:57;21.50;;;19.67;;
1122;SDS011;548;48.778;9.252;2022-11-15T16:08:24;20.80;;;19.13;;
1122;SDS011;548;48.778;9.252;2022-11-15T16:10:52;22.37;;;20.67;;
1122;SDS011;548;48.778;9.252;2022-11-15T16:13:19;20.23;;;18.57;;
1122;SDS011;548;48.778;9.252;2022-11-15T16:15:46;21.10;;;19.50;;
1122;SDS011;548;48.778;9.252;2022-11-15T16:18:17;21.73;;;19.80;;
1122;SDS011;548;48.778;9.252;2022-11-15T16:20:44;20.47;;;18.80;;
1122;SDS011;548;48.778;9.252;2022-11-15T16:23:16;20.97;;;19.60;;
1122;SDS011;548;48.778;9.252;2022-11-15T16:25:45;21.33;;;19.93;;
1122;SDS011;548;48.778;9.252;2022-11-15T16:28:16;22.43;;;20.47;;
1122;SDS011;548;48.778;9.252;2022-11-15T16:30:44;21.73;;;20.13;;
1122;SDS011;548;48.778;9.252;2022-11-15T16:33:10;21.47;;;19.60;;
1122;SDS011;548;48.778;9.252;2022-11-15T16:35:37;21.03;;;19.83;;
1122;SDS011;548;48.778;9.252;2022-11-15T16:38:04;22.07;;;20.47;;
1122;SDS011;548;48.778;9.252;2022-11-15T16:40:33;23.93;;;21.90;;
1122;SDS011;548;48.778;9.252;2022-11-15T16:43:00;22.80;;;21.00;;
1122;SDS011;548;48.778;9.252;2022-11-15T16:45:28;25.20;;;22.70;;
1122;SDS011;548;48.778;9.252;2022-11-15T16:47:56;21.93;;;20.37;;
1122;SDS011;548;48.778;9.252;2022-11-15T16:50:23;23.07;;;21.13;;
1122;SDS011;548;48.778;9.252;2022-11-15T16:52:52;22.10;;;20.33;;
1122;SDS011;548;48.778;9.252;2022-11-15T16:55:20;23.47;;;21.50;;
1122;SDS011;548;48.778;9.252;2022-11-15T16:57:50;21.27;;;19.70;;
1122;SDS011;548;48.778;9.252;2022-11-15T17:00:17;22.57;;;20.90;;
1122;SDS011;548;48.778;9.252;2022-11-15T17:02:45;22.00;;;20.03;;
1122;SDS011;548;48.778;9.252;2022-11-15T17:05:14;22.30;;;20.13;;
1122;SDS011;548;48.778;9.252;2022-11-15T17:07:42;19.57;;;18.47;;
1122;SDS011;548;48.778;9.252;2022-11-15T17:10:09;20.80;;;19.30;;
1122;SDS011;548;48.778;9.252;2022-11-15T17:12:37;18.83;;;17.50;;
1122;SDS011;548;48.778;9.252;2022-11-15T17:15:05;20.07;;;18.20;;
1122;SDS011;548;48.778;9.252;2022-11-15T17:17:33;19.73;;;18.17;;
1122;SDS011;548;48.778;9.252;2022-11-15T17:19:59;19.27;;;17.63;;
1122;SDS011;548;48.778;9.252;2022-11-15T17:22:29;18.50;;;17.30;;
1122;SDS011;548;48.778;9.252;2022-11-15T17:24:56;20.13;;;18.63;;
1122;SDS011;548;48.778;9.252;2022-11-15T17:27:23;20.03;;;18.63;;
1122;SDS011;548;48.778;9.252;2022-11-15T17:29:50;19.20;;;18.00;;
1122;SDS011;548;48.778;9.252;2022-11-15T17:32:18;19.47;;;18.07;;
1122;SDS011;548;48.778;9.252;2022-11-15T17:34:44;20.00;;;18.53;;
1122;SDS011;548;48.778;9.252;2022-11-15T17:37:11;17.90;;;16.90;;
1122;SDS011;548;48.778;9.252;2022-11-15T17:39:38;18.13;;;17.03;;
1122;SDS011;548;48.778;9.252;2022-11-15T17:42:05;18.97;;;17.33;;
1122;SDS011;548;48.778;9.252;2022-11-15T17:44:31;19.40;;;17.50;;
1122;SDS011;548;48.778;9.252;2022-11-15T17:46:58;21.77;;;19.63;;
1122;SDS011;548;48.778;9.252;2022-11-15T17:49:26;19.80;;;18.30;;
1122;SDS011;548;48.778;9.252;2022-11-15T17:51:53;22.83;;;18.70;;
1122;SDS011;548;48.778;9.252;2022-11-15T17:54:19;22.03;;;20.07;;
1122;SDS011;548;48.778;9.252;2022-11-15T17:56:46;20.63;;;19.03;;
1122;SDS011;548;48.778;9.252;2022-11-15T17:59:13;21.23;;;19.50;;